sensor_id;sensor_type;location;lat;lon;timestamp;P1;durP1;ratioP1;P2;durP2;ratioP2
62707;SDS011;48769;51.624;5.886;2024-01-06T00:01:17;50.72;;;29.60;;
62707;SDS011;48769;51.624;5.886;2024-01-06T00:03:43;50.20;;;28.63;;
62707;SDS011;48769;51.624;5.886;2024-01-06T00:06:11;51.30;;;29.73;;
62707;SDS011;48769;51.624;5.886;2024-01-06T00:08:37;52.80;;;31.45;;
62707;SDS011;48769;51.624;5.886;2024-01-06T00:11:02;56.03;;;32.92;;
62707;SDS011;48769;51.624;5.886;2024-01-06T00:13:28;58.25;;;33.13;;
62707;SDS011;48769;51.624;5.886;2024-01-06T00:15:54;54.60;;;31.35;;
62707;SDS011;48769;51.624;5.886;2024-01-06T00:18:19;58.42;;;32.05;;
62707;SDS011;48769;51.624;5.886;2024-01-06T00:20:45;64.28;;;34.75;;
62707;SDS011;48769;51.624;5.886;2024-01-06T00:23:10;62.95;;;35.72;;
62707;SDS011;48769;51.624;5.886;2024-01-06T00:25:36;62.35;;;34.08;;
62707;SDS011;48769;51.624;5.886;2024-01-06T00:28:01;61.35;;;33.22;;
62707;SDS011;48769;51.624;5.886;2024-01-06T00:30:26;60.92;;;34.28;;
62707;SDS011;48769;51.624;5.886;2024-01-06T00:32:51;57.50;;;32.05;;
62707;SDS011;48769;51.624;5.886;2024-01-06T00:35:17;55.72;;;31.02;;
62707;SDS011;48769;51.624;5.886;2024-01-06T00:37:42;58.13;;;30.50;;
62707;SDS011;48769;51.624;5.886;2024-01-06T00:40:07;57.05;;;29.77;;
62707;SDS011;48769;51.624;5.886;2024-01-06T00:42:33;53.40;;;28.38;;
62707;SDS011;48769;51.624;5.886;2024-01-06T00:44:59;51.72;;;28.45;;
62707;SDS011;48769;51.624;5.886;2024-01-06T00:47:24;51.00;;;26.52;;
62707;SDS011;48769;51.624;5.886;2024-01-06T00:49:49;50.33;;;27.88;;
62707;SDS011;48769;51.624;5.886;2024-01-06T00:52:15;50.33;;;26.67;;
62707;SDS011;48769;51.624;5.886;2024-01-06T00:54:40;46.60;;;25.65;;
62707;SDS011;48769;51.624;5.886;2024-01-06T00:57:06;50.58;;;26.75;;
62707;SDS011;48769;51.624;5.886;2024-01-06T00:59:31;49.60;;;26.05;;
62707;SDS011;48769;51.624;5.886;2024-01-06T01:01:56;45.00;;;25.27;;
62707;SDS011;48769;51.624;5.886;2024-01-06T01:04:22;47.95;;;26.00;;
62707;SDS011;48769;51.624;5.886;2024-01-06T01:06:47;45.25;;;24.67;;
62707;SDS011;48769;51.624;5.886;2024-01-06T01:09:12;42.50;;;23.15;;
62707;SDS011;48769;51.624;5.886;2024-01-06T01:11:39;39.10;;;21.48;;
62707;SDS011;48769;51.624;5.886;2024-01-06T01:14:04;37.83;;;21.20;;
62707;SDS011;48769;51.624;5.886;2024-01-06T01:16:30;38.80;;;21.77;;
62707;SDS011;48769;51.624;5.886;2024-01-06T01:18:57;38.38;;;21.80;;
62707;SDS011;48769;51.624;5.886;2024-01-06T01:21:22;38.20;;;21.08;;
62707;SDS011;48769;51.624;5.886;2024-01-06T01:23:47;39.30;;;22.08;;
62707;SDS011;48769;51.624;5.886;2024-01-06T01:26:13;34.70;;;20.00;;
62707;SDS011;48769;51.624;5.886;2024-01-06T01:28:38;38.70;;;20.92;;
62707;SDS011;48769;51.624;5.886;2024-01-06T01:31:03;33.28;;;19.10;;
62707;SDS011;48769;51.624;5.886;2024-01-06T01:33:29;37.90;;;20.25;;
62707;SDS011;48769;51.624;5.886;2024-01-06T01:35:54;36.20;;;19.38;;
62707;SDS011;48769;51.624;5.886;2024-01-06T01:38:19;29.88;;;18.02;;
62707;SDS011;48769;51.624;5.886;2024-01-06T01:40:51;30.77;;;17.95;;
62707;SDS011;48769;51.624;5.886;2024-01-06T01:43:19;33.35;;;20.48;;
62707;SDS011;48769;51.624;5.886;2024-01-06T01:45:45;31.10;;;18.38;;
62707;SDS011;48769;51.624;5.886;2024-01-06T01:48:15;35.17;;;18.75;;
62707;SDS011;48769;51.624;5.886;2024-01-06T01:50:40;33.55;;;18.67;;
62707;SDS011;48769;51.624;5.886;2024-01-06T01:53:05;29.23;;;17.27;;
62707;SDS011;48769;51.624;5.886;2024-01-06T01:55:31;29.77;;;18.08;;
62707;SDS011;48769;51.624;5.886;2024-01-06T01:57:56;33.83;;;17.98;;
62707;SDS011;48769;51.624;5.886;2024-01-06T02:00:22;32.75;;;18.65;;
62707;SDS011;48769;51.624;5.886;2024-01-06T02:02:47;30.55;;;18.05;;
62707;SDS011;48769;51.624;5.886;2024-01-06T02:05:13;29.65;;;17.90;;
62707;SDS011;48769;51.624;5.886;2024-01-06T02:07:38;32.13;;;18.60;;
62707;SDS011;48769;51.624;5.886;2024-01-06T02:10:04;34.80;;;19.30;;
62707;SDS011;48769;51.624;5.886;2024-01-06T02:12:30;32.95;;;16.77;;
62707;SDS011;48769;51.624;5.886;2024-01-06T02:14:55;31.10;;;17.83;;
62707;SDS011;48769;51.624;5.886;2024-01-06T02:17:21;29.05;;;16.55;;
62707;SDS011;48769;51.624;5.886;2024-01-06T02:19:46;26.05;;;15.27;;
62707;SDS011;48769;51.624;5.886;2024-01-06T02:22:11;32.58;;;16.80;;
62707;SDS011;48769;51.624;5.886;2024-01-06T02:24:37;32.03;;;17.42;;
62707;SDS011;48769;51.624;5.886;2024-01-06T02:27:02;28.73;;;15.60;;
62707;SDS011;48769;51.624;5.886;2024-01-06T02:29:28;28.50;;;16.02;;
62707;SDS011;48769;51.624;5.886;2024-01-06T02:31:53;27.10;;;15.18;;
62707;SDS011;48769;51.624;5.886;2024-01-06T02:34:18;28.67;;;16.60;;
62707;SDS011;48769;51.624;5.886;2024-01-06T02:36:43;24.90;;;13.77;;
62707;SDS011;48769;51.624;5.886;2024-01-06T02:39:09;25.77;;;14.30;;
62707;SDS011;48769;51.624;5.886;2024-01-06T02:41:34;25.15;;;14.02;;
62707;SDS011;48769;51.624;5.886;2024-01-06T02:43:59;23.90;;;13.88;;
62707;SDS011;48769;51.624;5.886;2024-01-06T02:46:27;23.13;;;13.43;;
62707;SDS011;48769;51.624;5.886;2024-01-06T02:48:53;22.65;;;13.65;;
62707;SDS011;48769;51.624;5.886;2024-01-06T02:51:18;24.45;;;13.80;;
62707;SDS011;48769;51.624;5.886;2024-01-06T02:53:43;24.63;;;14.48;;
62707;SDS011;48769;51.624;5.886;2024-01-06T02:56:12;24.20;;;14.27;;
62707;SDS011;48769;51.624;5.886;2024-01-06T02:58:37;23.02;;;13.73;;
62707;SDS011;48769;51.624;5.886;2024-01-06T03:01:03;24.90;;;15.05;;
62707;SDS011;48769;51.624;5.886;2024-01-06T03:03:28;21.52;;;13.68;;
62707;SDS011;48769;51.624;5.886;2024-01-06T03:05:53;24.35;;;14.38;;
62707;SDS011;48769;51.624;5.886;2024-01-06T03:08:19;20.58;;;12.68;;
62707;SDS011;48769;51.624;5.886;2024-01-06T03:10:44;19.23;;;13.10;;
62707;SDS011;48769;51.624;5.886;2024-01-06T03:13:09;18.48;;;12.40;;
62707;SDS011;48769;51.624;5.886;2024-01-06T03:15:35;19.17;;;11.73;;
62707;SDS011;48769;51.624;5.886;2024-01-06T03:18:00;19.10;;;12.48;;
62707;SDS011;48769;51.624;5.886;2024-01-06T03:20:25;20.38;;;12.98;;
62707;SDS011;48769;51.624;5.886;2024-01-06T03:22:51;18.00;;;11.27;;
62707;SDS011;48769;51.624;5.886;2024-01-06T03:25:16;20.25;;;12.68;;
62707;SDS011;48769;51.624;5.886;2024-01-06T03:27:41;19.60;;;11.70;;
62707;SDS011;48769;51.624;5.886;2024-01-06T03:30:07;19.73;;;12.13;;
62707;SDS011;48769;51.624;5.886;2024-01-06T03:32:32;18.45;;;11.82;;
62707;SDS011;48769;51.624;5.886;2024-01-06T03:34:58;19.85;;;12.77;;
62707;SDS011;48769;51.624;5.886;2024-01-06T03:37:23;19.13;;;11.80;;
62707;SDS011;48769;51.624;5.886;2024-01-06T03:39:49;21.60;;;12.75;;
62707;SDS011;48769;51.624;5.886;2024-01-06T03:42:14;19.05;;;12.57;;
62707;SDS011;48769;51.624;5.886;2024-01-06T03:44:40;17.75;;;11.68;;
62707;SDS011;48769;51.624;5.886;2024-01-06T03:47:05;22.33;;;13.20;;
62707;SDS011;48769;51.624;5.886;2024-01-06T03:49:30;21.75;;;13.35;;
62707;SDS011;48769;51.624;5.886;2024-01-06T03:51:56;23.02;;;14.00;;
62707;SDS011;48769;51.624;5.886;2024-01-06T03:54:21;25.15;;;14.02;;
62707;SDS011;48769;51.624;5.886;2024-01-06T03:56:47;26.80;;;15.00;;
62707;SDS011;48769;51.624;5.886;2024-01-06T03:59:12;25.88;;;15.18;;
62707;SDS011;48769;51.624;5.886;2024-01-06T04:01:38;25.52;;;14.63;;
62707;SDS011;48769;51.624;5.886;2024-01-06T04:04:03;25.50;;;15.52;;
62707;SDS011;48769;51.624;5.886;2024-01-06T04:06:29;29.85;;;15.65;;
62707;SDS011;48769;51.624;5.886;2024-01-06T04:08:54;28.60;;;16.83;;
62707;SDS011;48769;51.624;5.886;2024-01-06T04:11:20;27.95;;;17.30;;
62707;SDS011;48769;51.624;5.886;2024-01-06T04:13:46;26.52;;;16.45;;
62707;SDS011;48769;51.624;5.886;2024-01-06T04:16:11;28.42;;;16.92;;
62707;SDS011;48769;51.624;5.886;2024-01-06T04:18:37;30.77;;;17.73;;
62707;SDS011;48769;51.624;5.886;2024-01-06T04:21:02;32.83;;;17.55;;
62707;SDS011;48769;51.624;5.886;2024-01-06T04:23:28;29.50;;;17.67;;
62707;SDS011;48769;51.624;5.886;2024-01-06T04:25:56;29.92;;;17.70;;
62707;SDS011;48769;51.624;5.886;2024-01-06T04:28:22;35.58;;;18.73;;
62707;SDS011;48769;51.624;5.886;2024-01-06T04:30:47;30.92;;;16.85;;
62707;SDS011;48769;51.624;5.886;2024-01-06T04:33:12;27.77;;;16.25;;
62707;SDS011;48769;51.624;5.886;2024-01-06T04:35:38;26.27;;;15.32;;
62707;SDS011;48769;51.624;5.886;2024-01-06T04:38:03;28.15;;;16.98;;
62707;SDS011;48769;51.624;5.886;2024-01-06T04:40:28;26.55;;;15.27;;
62707;SDS011;48769;51.624;5.886;2024-01-06T04:42:54;28.58;;;16.83;;
62707;SDS011;48769;51.624;5.886;2024-01-06T04:45:19;28.63;;;16.35;;
62707;SDS011;48769;51.624;5.886;2024-01-06T04:47:44;28.10;;;17.02;;
62707;SDS011;48769;51.624;5.886;2024-01-06T04:50:10;28.85;;;16.88;;
62707;SDS011;48769;51.624;5.886;2024-01-06T04:52:35;29.00;;;16.77;;
62707;SDS011;48769;51.624;5.886;2024-01-06T04:55:01;26.95;;;16.70;;
62707;SDS011;48769;51.624;5.886;2024-01-06T04:57:27;28.15;;;16.50;;
62707;SDS011;48769;51.624;5.886;2024-01-06T04:59:52;30.60;;;16.52;;
62707;SDS011;48769;51.624;5.886;2024-01-06T05:02:18;32.00;;;17.20;;
62707;SDS011;48769;51.624;5.886;2024-01-06T05:04:46;32.95;;;17.35;;
62707;SDS011;48769;51.624;5.886;2024-01-06T05:07:11;28.38;;;16.77;;
62707;SDS011;48769;51.624;5.886;2024-01-06T05:09:37;32.05;;;17.48;;
62707;SDS011;48769;51.624;5.886;2024-01-06T05:12:02;30.13;;;17.90;;
62707;SDS011;48769;51.624;5.886;2024-01-06T05:14:28;30.42;;;16.98;;
62707;SDS011;48769;51.624;5.886;2024-01-06T05:16:53;29.77;;;17.42;;
62707;SDS011;48769;51.624;5.886;2024-01-06T05:19:18;26.15;;;15.70;;
62707;SDS011;48769;51.624;5.886;2024-01-06T05:21:44;27.05;;;16.00;;
62707;SDS011;48769;51.624;5.886;2024-01-06T05:24:10;30.13;;;17.33;;
62707;SDS011;48769;51.624;5.886;2024-01-06T05:26:35;26.00;;;16.23;;
62707;SDS011;48769;51.624;5.886;2024-01-06T05:29:01;29.45;;;17.35;;
62707;SDS011;48769;51.624;5.886;2024-01-06T05:31:26;32.60;;;18.63;;
62707;SDS011;48769;51.624;5.886;2024-01-06T05:33:51;28.55;;;16.20;;
62707;SDS011;48769;51.624;5.886;2024-01-06T05:36:20;29.75;;;18.27;;
62707;SDS011;48769;51.624;5.886;2024-01-06T05:38:45;27.15;;;15.48;;
62707;SDS011;48769;51.624;5.886;2024-01-06T05:41:11;27.70;;;15.88;;
62707;SDS011;48769;51.624;5.886;2024-01-06T05:43:36;28.02;;;15.82;;
62707;SDS011;48769;51.624;5.886;2024-01-06T05:46:01;29.95;;;16.98;;
62707;SDS011;48769;51.624;5.886;2024-01-06T05:48:27;28.42;;;17.27;;
62707;SDS011;48769;51.624;5.886;2024-01-06T05:50:52;27.88;;;16.63;;
62707;SDS011;48769;51.624;5.886;2024-01-06T05:53:17;30.98;;;17.33;;
62707;SDS011;48769;51.624;5.886;2024-01-06T05:55:43;26.60;;;16.00;;
62707;SDS011;48769;51.624;5.886;2024-01-06T05:58:09;29.70;;;17.33;;
62707;SDS011;48769;51.624;5.886;2024-01-06T06:00:34;27.40;;;16.35;;
62707;SDS011;48769;51.624;5.886;2024-01-06T06:03:00;26.30;;;15.93;;
62707;SDS011;48769;51.624;5.886;2024-01-06T06:05:25;31.00;;;17.02;;
62707;SDS011;48769;51.624;5.886;2024-01-06T06:07:51;26.15;;;15.75;;
62707;SDS011;48769;51.624;5.886;2024-01-06T06:10:16;31.15;;;17.33;;
62707;SDS011;48769;51.624;5.886;2024-01-06T06:12:43;30.38;;;17.65;;
62707;SDS011;48769;51.624;5.886;2024-01-06T06:15:09;26.00;;;15.75;;
62707;SDS011;48769;51.624;5.886;2024-01-06T06:17:35;29.65;;;17.55;;
62707;SDS011;48769;51.624;5.886;2024-01-06T06:20:01;28.83;;;17.33;;
62707;SDS011;48769;51.624;5.886;2024-01-06T06:22:27;30.88;;;17.05;;
62707;SDS011;48769;51.624;5.886;2024-01-06T06:24:55;33.47;;;16.67;;
62707;SDS011;48769;51.624;5.886;2024-01-06T06:27:34;33.63;;;17.42;;
62707;SDS011;48769;51.624;5.886;2024-01-06T06:30:00;34.25;;;18.38;;
62707;SDS011;48769;51.624;5.886;2024-01-06T06:32:25;34.15;;;19.23;;
62707;SDS011;48769;51.624;5.886;2024-01-06T06:34:51;31.48;;;17.33;;
62707;SDS011;48769;51.624;5.886;2024-01-06T06:37:16;31.38;;;17.55;;
62707;SDS011;48769;51.624;5.886;2024-01-06T06:39:41;30.27;;;16.30;;
62707;SDS011;48769;51.624;5.886;2024-01-06T06:42:09;29.30;;;15.30;;
62707;SDS011;48769;51.624;5.886;2024-01-06T06:44:35;24.67;;;13.90;;
62707;SDS011;48769;51.624;5.886;2024-01-06T06:47:00;23.83;;;14.27;;
62707;SDS011;48769;51.624;5.886;2024-01-06T06:49:26;23.40;;;12.45;;
62707;SDS011;48769;51.624;5.886;2024-01-06T06:51:51;24.63;;;14.18;;
62707;SDS011;48769;51.624;5.886;2024-01-06T06:54:16;24.90;;;12.90;;
62707;SDS011;48769;51.624;5.886;2024-01-06T06:56:42;21.10;;;12.02;;
62707;SDS011;48769;51.624;5.886;2024-01-06T06:59:10;20.15;;;11.30;;
62707;SDS011;48769;51.624;5.886;2024-01-06T07:01:35;23.25;;;12.02;;
62707;SDS011;48769;51.624;5.886;2024-01-06T07:04:01;23.67;;;12.48;;
62707;SDS011;48769;51.624;5.886;2024-01-06T07:06:27;23.02;;;13.20;;
62707;SDS011;48769;51.624;5.886;2024-01-06T07:08:53;21.45;;;12.88;;
62707;SDS011;48769;51.624;5.886;2024-01-06T07:11:19;22.25;;;12.95;;
62707;SDS011;48769;51.624;5.886;2024-01-06T07:13:44;23.85;;;13.15;;
62707;SDS011;48769;51.624;5.886;2024-01-06T07:16:09;21.20;;;13.20;;
62707;SDS011;48769;51.624;5.886;2024-01-06T07:18:36;21.70;;;13.85;;
62707;SDS011;48769;51.624;5.886;2024-01-06T07:21:03;22.88;;;13.10;;
62707;SDS011;48769;51.624;5.886;2024-01-06T07:23:31;21.48;;;12.82;;
62707;SDS011;48769;51.624;5.886;2024-01-06T07:25:56;25.55;;;14.10;;
62707;SDS011;48769;51.624;5.886;2024-01-06T07:28:21;24.67;;;14.50;;
62707;SDS011;48769;51.624;5.886;2024-01-06T07:30:47;25.52;;;13.60;;
62707;SDS011;48769;51.624;5.886;2024-01-06T07:33:12;23.48;;;14.57;;
62707;SDS011;48769;51.624;5.886;2024-01-06T07:35:37;25.67;;;15.98;;
62707;SDS011;48769;51.624;5.886;2024-01-06T07:38:07;27.00;;;16.17;;
62707;SDS011;48769;51.624;5.886;2024-01-06T07:40:32;27.00;;;15.45;;
62707;SDS011;48769;51.624;5.886;2024-01-06T07:42:58;27.50;;;15.75;;
62707;SDS011;48769;51.624;5.886;2024-01-06T07:45:23;29.20;;;16.58;;
62707;SDS011;48769;51.624;5.886;2024-01-06T07:47:48;28.33;;;17.20;;
62707;SDS011;48769;51.624;5.886;2024-01-06T07:50:14;28.70;;;17.60;;
62707;SDS011;48769;51.624;5.886;2024-01-06T07:52:39;27.38;;;17.02;;
62707;SDS011;48769;51.624;5.886;2024-01-06T07:55:04;30.30;;;16.00;;
62707;SDS011;48769;51.624;5.886;2024-01-06T07:57:30;35.03;;;17.63;;
62707;SDS011;48769;51.624;5.886;2024-01-06T07:59:55;27.17;;;17.17;;
62707;SDS011;48769;51.624;5.886;2024-01-06T08:02:20;29.67;;;16.98;;
62707;SDS011;48769;51.624;5.886;2024-01-06T08:04:46;28.55;;;17.60;;
62707;SDS011;48769;51.624;5.886;2024-01-06T08:07:11;26.90;;;16.40;;
62707;SDS011;48769;51.624;5.886;2024-01-06T08:09:38;27.98;;;17.80;;
62707;SDS011;48769;51.624;5.886;2024-01-06T08:12:04;30.08;;;16.55;;
62707;SDS011;48769;51.624;5.886;2024-01-06T08:14:29;29.83;;;17.50;;
62707;SDS011;48769;51.624;5.886;2024-01-06T08:16:55;28.63;;;18.00;;
62707;SDS011;48769;51.624;5.886;2024-01-06T08:19:20;29.08;;;18.40;;
62707;SDS011;48769;51.624;5.886;2024-01-06T08:21:45;27.83;;;17.00;;
62707;SDS011;48769;51.624;5.886;2024-01-06T08:24:12;27.63;;;17.60;;
62707;SDS011;48769;51.624;5.886;2024-01-06T08:26:37;30.25;;;17.50;;
62707;SDS011;48769;51.624;5.886;2024-01-06T08:29:03;30.15;;;17.73;;
62707;SDS011;48769;51.624;5.886;2024-01-06T08:31:28;30.45;;;18.25;;
62707;SDS011;48769;51.624;5.886;2024-01-06T08:33:53;29.13;;;18.45;;
62707;SDS011;48769;51.624;5.886;2024-01-06T08:36:18;29.42;;;17.98;;
62707;SDS011;48769;51.624;5.886;2024-01-06T08:38:44;29.92;;;18.20;;
62707;SDS011;48769;51.624;5.886;2024-01-06T08:41:09;30.58;;;19.20;;
62707;SDS011;48769;51.624;5.886;2024-01-06T08:43:34;29.52;;;18.33;;
62707;SDS011;48769;51.624;5.886;2024-01-06T08:46:00;29.30;;;18.80;;
62707;SDS011;48769;51.624;5.886;2024-01-06T08:48:25;30.40;;;18.85;;
62707;SDS011;48769;51.624;5.886;2024-01-06T08:50:51;31.40;;;19.42;;
62707;SDS011;48769;51.624;5.886;2024-01-06T08:53:16;29.90;;;19.00;;
62707;SDS011;48769;51.624;5.886;2024-01-06T08:55:41;28.85;;;18.52;;
62707;SDS011;48769;51.624;5.886;2024-01-06T08:58:07;32.22;;;19.35;;
62707;SDS011;48769;51.624;5.886;2024-01-06T09:00:32;31.27;;;18.77;;
62707;SDS011;48769;51.624;5.886;2024-01-06T09:02:57;27.27;;;17.48;;
62707;SDS011;48769;51.624;5.886;2024-01-06T09:05:23;24.17;;;16.63;;
62707;SDS011;48769;51.624;5.886;2024-01-06T09:07:48;24.65;;;15.52;;
62707;SDS011;48769;51.624;5.886;2024-01-06T09:10:16;25.83;;;16.08;;
62707;SDS011;48769;51.624;5.886;2024-01-06T09:12:42;24.60;;;16.17;;
62707;SDS011;48769;51.624;5.886;2024-01-06T09:15:08;24.83;;;16.60;;
62707;SDS011;48769;51.624;5.886;2024-01-06T09:17:33;24.48;;;15.43;;
62707;SDS011;48769;51.624;5.886;2024-01-06T09:19:59;25.20;;;16.77;;
62707;SDS011;48769;51.624;5.886;2024-01-06T09:22:25;25.45;;;17.17;;
62707;SDS011;48769;51.624;5.886;2024-01-06T09:24:50;27.23;;;15.98;;
62707;SDS011;48769;51.624;5.886;2024-01-06T09:27:15;27.00;;;17.08;;
62707;SDS011;48769;51.624;5.886;2024-01-06T09:29:41;24.70;;;16.73;;
62707;SDS011;48769;51.624;5.886;2024-01-06T09:32:06;25.60;;;16.08;;
62707;SDS011;48769;51.624;5.886;2024-01-06T09:34:32;26.25;;;17.35;;
62707;SDS011;48769;51.624;5.886;2024-01-06T09:36:57;27.27;;;17.60;;
62707;SDS011;48769;51.624;5.886;2024-01-06T09:39:22;27.58;;;17.23;;
62707;SDS011;48769;51.624;5.886;2024-01-06T09:41:47;28.30;;;17.65;;
62707;SDS011;48769;51.624;5.886;2024-01-06T09:44:13;26.50;;;17.13;;
62707;SDS011;48769;51.624;5.886;2024-01-06T09:46:38;25.02;;;17.48;;
62707;SDS011;48769;51.624;5.886;2024-01-06T09:49:05;27.27;;;17.92;;
62707;SDS011;48769;51.624;5.886;2024-01-06T09:51:31;27.80;;;18.60;;
62707;SDS011;48769;51.624;5.886;2024-01-06T09:53:58;27.65;;;17.38;;
62707;SDS011;48769;51.624;5.886;2024-01-06T09:56:25;29.17;;;18.52;;
62707;SDS011;48769;51.624;5.886;2024-01-06T09:58:51;25.50;;;16.98;;
62707;SDS011;48769;51.624;5.886;2024-01-06T10:01:17;28.00;;;16.98;;
62707;SDS011;48769;51.624;5.886;2024-01-06T10:03:43;30.27;;;17.17;;
62707;SDS011;48769;51.624;5.886;2024-01-06T10:06:10;26.15;;;16.95;;
62707;SDS011;48769;51.624;5.886;2024-01-06T10:08:36;23.50;;;16.33;;
62707;SDS011;48769;51.624;5.886;2024-01-06T10:11:02;31.90;;;17.92;;
62707;SDS011;48769;51.624;5.886;2024-01-06T10:13:27;28.08;;;15.80;;
62707;SDS011;48769;51.624;5.886;2024-01-06T10:15:54;28.98;;;17.02;;
62707;SDS011;48769;51.624;5.886;2024-01-06T10:18:19;26.65;;;16.33;;
62707;SDS011;48769;51.624;5.886;2024-01-06T10:20:48;26.77;;;16.95;;
62707;SDS011;48769;51.624;5.886;2024-01-06T10:23:33;27.60;;;16.13;;
62707;SDS011;48769;51.624;5.886;2024-01-06T10:25:59;24.58;;;17.25;;
62707;SDS011;48769;51.624;5.886;2024-01-06T10:28:24;31.25;;;16.38;;
62707;SDS011;48769;51.624;5.886;2024-01-06T10:30:53;24.38;;;15.50;;
62707;SDS011;48769;51.624;5.886;2024-01-06T10:33:20;29.65;;;17.95;;
62707;SDS011;48769;51.624;5.886;2024-01-06T10:35:46;29.45;;;17.45;;
62707;SDS011;48769;51.624;5.886;2024-01-06T10:38:11;28.13;;;17.52;;
62707;SDS011;48769;51.624;5.886;2024-01-06T10:40:37;28.70;;;17.85;;
62707;SDS011;48769;51.624;5.886;2024-01-06T10:43:03;32.22;;;18.05;;
62707;SDS011;48769;51.624;5.886;2024-01-06T10:45:29;31.02;;;17.63;;
62707;SDS011;48769;51.624;5.886;2024-01-06T10:47:57;34.60;;;19.15;;
62707;SDS011;48769;51.624;5.886;2024-01-06T10:50:24;31.15;;;17.40;;
62707;SDS011;48769;51.624;5.886;2024-01-06T10:52:52;32.47;;;18.40;;
62707;SDS011;48769;51.624;5.886;2024-01-06T10:55:18;34.65;;;20.90;;
62707;SDS011;48769;51.624;5.886;2024-01-06T10:57:45;41.05;;;27.67;;
62707;SDS011;48769;51.624;5.886;2024-01-06T11:00:11;55.22;;;39.10;;
62707;SDS011;48769;51.624;5.886;2024-01-06T11:02:38;40.72;;;27.13;;
62707;SDS011;48769;51.624;5.886;2024-01-06T11:05:04;33.97;;;22.23;;
62707;SDS011;48769;51.624;5.886;2024-01-06T11:07:32;37.50;;;22.38;;
62707;SDS011;48769;51.624;5.886;2024-01-06T11:12:30;34.87;;;21.73;;
62707;SDS011;48769;51.624;5.886;2024-01-06T11:14:56;35.58;;;21.80;;
62707;SDS011;48769;51.624;5.886;2024-01-06T11:20:22;28.80;;;18.15;;
62707;SDS011;48769;51.624;5.886;2024-01-06T11:22:48;37.42;;;23.00;;
62707;SDS011;48769;51.624;5.886;2024-01-06T11:25:15;36.15;;;21.40;;
62707;SDS011;48769;51.624;5.886;2024-01-06T11:27:45;30.17;;;18.70;;
62707;SDS011;48769;51.624;5.886;2024-01-06T11:32:48;28.73;;;17.95;;
62707;SDS011;48769;51.624;5.886;2024-01-06T11:35:14;36.78;;;21.38;;
62707;SDS011;48769;51.624;5.886;2024-01-06T11:43:00;39.47;;;25.77;;
62707;SDS011;48769;51.624;5.886;2024-01-06T11:45:27;36.53;;;22.85;;
62707;SDS011;48769;51.624;5.886;2024-01-06T11:47:57;30.42;;;19.70;;
62707;SDS011;48769;51.624;5.886;2024-01-06T11:50:24;35.67;;;21.30;;
62707;SDS011;48769;51.624;5.886;2024-01-06T11:52:51;31.33;;;18.73;;
62707;SDS011;48769;51.624;5.886;2024-01-06T11:55:19;33.05;;;19.20;;
62707;SDS011;48769;51.624;5.886;2024-01-06T11:57:45;37.78;;;19.27;;
62707;SDS011;48769;51.624;5.886;2024-01-06T12:00:12;33.60;;;19.77;;
62707;SDS011;48769;51.624;5.886;2024-01-06T12:02:40;34.45;;;18.77;;
62707;SDS011;48769;51.624;5.886;2024-01-06T12:05:10;35.75;;;20.55;;
62707;SDS011;48769;51.624;5.886;2024-01-06T12:07:39;35.72;;;20.73;;
62707;SDS011;48769;51.624;5.886;2024-01-06T12:10:05;40.13;;;24.00;;
62707;SDS011;48769;51.624;5.886;2024-01-06T12:12:32;30.83;;;18.00;;
62707;SDS011;48769;51.624;5.886;2024-01-06T12:14:58;39.85;;;24.52;;
62707;SDS011;48769;51.624;5.886;2024-01-06T12:17:23;35.65;;;20.67;;
62707;SDS011;48769;51.624;5.886;2024-01-06T12:19:54;34.88;;;21.45;;
62707;SDS011;48769;51.624;5.886;2024-01-06T12:22:20;33.90;;;19.90;;
62707;SDS011;48769;51.624;5.886;2024-01-06T12:24:48;31.38;;;20.13;;
62707;SDS011;48769;51.624;5.886;2024-01-06T12:27:14;31.63;;;20.00;;
62707;SDS011;48769;51.624;5.886;2024-01-06T12:29:41;31.58;;;20.02;;
62707;SDS011;48769;51.624;5.886;2024-01-06T12:32:07;27.50;;;18.20;;
62707;SDS011;48769;51.624;5.886;2024-01-06T12:34:34;29.58;;;19.45;;
62707;SDS011;48769;51.624;5.886;2024-01-06T12:37:00;29.70;;;18.65;;
62707;SDS011;48769;51.624;5.886;2024-01-06T12:39:27;28.63;;;18.55;;
62707;SDS011;48769;51.624;5.886;2024-01-06T12:41:56;33.17;;;19.33;;
62707;SDS011;48769;51.624;5.886;2024-01-06T12:44:22;26.33;;;17.17;;
62707;SDS011;48769;51.624;5.886;2024-01-06T12:46:48;31.08;;;18.20;;
62707;SDS011;48769;51.624;5.886;2024-01-06T12:49:13;30.48;;;18.38;;
62707;SDS011;48769;51.624;5.886;2024-01-06T12:51:39;31.77;;;19.80;;
62707;SDS011;48769;51.624;5.886;2024-01-06T12:54:04;30.83;;;19.52;;
62707;SDS011;48769;51.624;5.886;2024-01-06T12:56:30;33.03;;;20.35;;
62707;SDS011;48769;51.624;5.886;2024-01-06T12:58:56;35.00;;;21.90;;
62707;SDS011;48769;51.624;5.886;2024-01-06T13:01:21;31.10;;;19.80;;
62707;SDS011;48769;51.624;5.886;2024-01-06T13:03:46;40.05;;;20.38;;
62707;SDS011;48769;51.624;5.886;2024-01-06T13:06:12;33.00;;;20.77;;
62707;SDS011;48769;51.624;5.886;2024-01-06T13:08:38;30.15;;;19.25;;
62707;SDS011;48769;51.624;5.886;2024-01-06T13:11:04;28.08;;;18.55;;
62707;SDS011;48769;51.624;5.886;2024-01-06T13:13:29;60.78;;;34.45;;
62707;SDS011;48769;51.624;5.886;2024-01-06T13:15:56;42.33;;;24.92;;
62707;SDS011;48769;51.624;5.886;2024-01-06T13:18:22;37.70;;;22.05;;
62707;SDS011;48769;51.624;5.886;2024-01-06T13:20:47;36.80;;;21.67;;
62707;SDS011;48769;51.624;5.886;2024-01-06T13:23:12;40.42;;;24.08;;
62707;SDS011;48769;51.624;5.886;2024-01-06T13:25:38;39.92;;;25.27;;
62707;SDS011;48769;51.624;5.886;2024-01-06T13:28:06;40.58;;;25.67;;
62707;SDS011;48769;51.624;5.886;2024-01-06T13:30:32;42.40;;;26.75;;
62707;SDS011;48769;51.624;5.886;2024-01-06T13:32:57;32.17;;;19.75;;
62707;SDS011;48769;51.624;5.886;2024-01-06T13:35:23;38.42;;;24.08;;
62707;SDS011;48769;51.624;5.886;2024-01-06T13:37:53;32.95;;;22.75;;
62707;SDS011;48769;51.624;5.886;2024-01-06T13:40:20;31.80;;;21.27;;
62707;SDS011;48769;51.624;5.886;2024-01-06T13:42:47;27.33;;;19.73;;
62707;SDS011;48769;51.624;5.886;2024-01-06T13:45:16;31.35;;;18.13;;
62707;SDS011;48769;51.624;5.886;2024-01-06T13:47:42;29.52;;;18.90;;
62707;SDS011;48769;51.624;5.886;2024-01-06T13:50:10;29.20;;;18.27;;
62707;SDS011;48769;51.624;5.886;2024-01-06T13:52:37;29.35;;;18.63;;
62707;SDS011;48769;51.624;5.886;2024-01-06T13:55:03;27.27;;;17.50;;
62707;SDS011;48769;51.624;5.886;2024-01-06T13:57:28;29.27;;;19.05;;
62707;SDS011;48769;51.624;5.886;2024-01-06T13:59:54;22.55;;;16.15;;
62707;SDS011;48769;51.624;5.886;2024-01-06T14:02:19;29.50;;;18.00;;
62707;SDS011;48769;51.624;5.886;2024-01-06T14:04:44;28.48;;;18.65;;
62707;SDS011;48769;51.624;5.886;2024-01-06T14:07:10;27.40;;;18.33;;
62707;SDS011;48769;51.624;5.886;2024-01-06T14:09:35;29.98;;;17.92;;
62707;SDS011;48769;51.624;5.886;2024-01-06T14:12:01;31.00;;;18.92;;
62707;SDS011;48769;51.624;5.886;2024-01-06T14:14:27;32.85;;;19.30;;
62707;SDS011;48769;51.624;5.886;2024-01-06T14:16:52;30.00;;;19.95;;
62707;SDS011;48769;51.624;5.886;2024-01-06T14:19:17;32.38;;;19.20;;
62707;SDS011;48769;51.624;5.886;2024-01-06T14:21:45;32.78;;;20.05;;
62707;SDS011;48769;51.624;5.886;2024-01-06T14:24:11;31.80;;;19.85;;
62707;SDS011;48769;51.624;5.886;2024-01-06T14:26:37;30.30;;;19.17;;